sensor_id;sensor_type;location;lat;lon;timestamp;pressure;altitude;pressure_sealevel;temperature;humidity
12146;BME280;6136;47.032;15.398;2022-08-06T00:00:58;97365.22;;;23.90;nan
12146;BME280;6136;47.032;15.398;2022-08-06T00:03:28;97367.34;;;23.80;nan
12146;BME280;6136;47.032;15.398;2022-08-06T00:05:56;97363.94;;;23.86;nan
12146;BME280;6136;47.032;15.398;2022-08-06T00:08:24;97357.84;;;23.84;nan
12146;BME280;6136;47.032;15.398;2022-08-06T00:10:52;97364.00;;;23.78;nan
12146;BME280;6136;47.032;15.398;2022-08-06T00:13:20;97357.75;;;23.77;nan
12146;BME280;6136;47.032;15.398;2022-08-06T00:15:48;97360.69;;;23.68;nan
12146;BME280;6136;47.032;15.398;2022-08-06T00:18:37;97371.16;;;23.71;nan
12146;BME280;6136;47.032;15.398;2022-08-06T00:21:06;97363.41;;;23.68;nan
12146;BME280;6136;47.032;15.398;2022-08-06T00:23:38;97355.84;;;23.63;nan
12146;BME280;6136;47.032;15.398;2022-08-06T00:26:18;97366.72;;;23.55;nan
12146;BME280;6136;47.032;15.398;2022-08-06T00:28:46;97354.44;;;23.44;nan
12146;BME280;6136;47.032;15.398;2022-08-06T00:31:14;97354.44;;;23.44;nan
12146;BME280;6136;47.032;15.398;2022-08-06T00:33:44;97363.25;;;23.38;nan
12146;BME280;6136;47.032;15.398;2022-08-06T00:36:22;97359.88;;;23.36;nan
12146;BME280;6136;47.032;15.398;2022-08-06T00:38:51;97351.19;;;23.26;nan
12146;BME280;6136;47.032;15.398;2022-08-06T00:41:20;97350.88;;;23.21;nan
12146;BME280;6136;47.032;15.398;2022-08-06T00:43:48;97351.25;;;23.18;nan
12146;BME280;6136;47.032;15.398;2022-08-06T00:46:17;97354.13;;;23.16;nan
12146;BME280;6136;47.032;15.398;2022-08-06T00:48:46;97357.19;;;23.13;nan
12146;BME280;6136;47.032;15.398;2022-08-06T00:51:19;97354.47;;;23.13;nan
12146;BME280;6136;47.032;15.398;2022-08-06T00:53:47;97347.03;;;23.15;nan
12146;BME280;6136;47.032;15.398;2022-08-06T00:56:15;97345.53;;;23.13;nan
12146;BME280;6136;47.032;15.398;2022-08-06T00:58:43;97347.16;;;23.22;nan
12146;BME280;6136;47.032;15.398;2022-08-06T01:01:12;97345.00;;;23.40;nan
12146;BME280;6136;47.032;15.398;2022-08-06T01:03:43;97349.94;;;23.59;nan
12146;BME280;6136;47.032;15.398;2022-08-06T01:06:19;97352.09;;;23.64;nan
12146;BME280;6136;47.032;15.398;2022-08-06T01:09:07;97350.38;;;23.48;nan
12146;BME280;6136;47.032;15.398;2022-08-06T01:11:36;97351.59;;;23.38;nan
12146;BME280;6136;47.032;15.398;2022-08-06T01:14:05;97356.06;;;23.31;nan
12146;BME280;6136;47.032;15.398;2022-08-06T01:16:39;97350.66;;;23.31;nan
12146;BME280;6136;47.032;15.398;2022-08-06T01:19:30;97346.03;;;23.16;nan
12146;BME280;6136;47.032;15.398;2022-08-06T01:22:40;97349.91;;;23.14;nan
12146;BME280;6136;47.032;15.398;2022-08-06T01:28:20;97358.69;;;23.16;nan
12146;BME280;6136;47.032;15.398;2022-08-06T01:31:01;97356.72;;;23.10;nan
12146;BME280;6136;47.032;15.398;2022-08-06T01:33:37;97352.66;;;23.06;nan
12146;BME280;6136;47.032;15.398;2022-08-06T01:36:09;97356.03;;;23.08;nan
12146;BME280;6136;47.032;15.398;2022-08-06T01:38:44;97355.69;;;23.11;nan
12146;BME280;6136;47.032;15.398;2022-08-06T01:41:26;97345.19;;;23.16;nan
12146;BME280;6136;47.032;15.398;2022-08-06T01:44:28;97355.44;;;23.20;nan
12146;BME280;6136;47.032;15.398;2022-08-06T01:46:59;97348.34;;;23.19;nan
12146;BME280;6136;47.032;15.398;2022-08-06T01:49:33;97348.56;;;23.18;nan
12146;BME280;6136;47.032;15.398;2022-08-06T01:52:24;97351.91;;;23.20;nan
12146;BME280;6136;47.032;15.398;2022-08-06T01:54:56;97343.16;;;23.18;nan
12146;BME280;6136;47.032;15.398;2022-08-06T01:57:28;97350.88;;;23.21;nan
12146;BME280;6136;47.032;15.398;2022-08-06T02:00:20;97348.22;;;23.13;nan
12146;BME280;6136;47.032;15.398;2022-08-06T02:02:54;97349.63;;;23.09;nan
12146;BME280;6136;47.032;15.398;2022-08-06T02:05:24;97344.50;;;23.14;nan
12146;BME280;6136;47.032;15.398;2022-08-06T02:07:58;97347.38;;;23.12;nan
12146;BME280;6136;47.032;15.398;2022-08-06T02:10:48;97346.28;;;22.99;nan
12146;BME280;6136;47.032;15.398;2022-08-06T02:13:19;97346.00;;;22.94;nan
12146;BME280;6136;47.032;15.398;2022-08-06T02:15:51;97351.09;;;22.89;nan
12146;BME280;6136;47.032;15.398;2022-08-06T02:18:25;97335.28;;;22.77;nan
12146;BME280;6136;47.032;15.398;2022-08-06T02:21:03;97347.09;;;22.76;nan
12146;BME280;6136;47.032;15.398;2022-08-06T02:23:40;97347.47;;;22.73;nan
12146;BME280;6136;47.032;15.398;2022-08-06T02:26:11;97345.25;;;22.69;nan
12146;BME280;6136;47.032;15.398;2022-08-06T02:28:42;97358.09;;;22.67;nan
12146;BME280;6136;47.032;15.398;2022-08-06T02:31:17;97361.44;;;22.69;nan
12146;BME280;6136;47.032;15.398;2022-08-06T02:33:48;97357.56;;;22.79;nan
12146;BME280;6136;47.032;15.398;2022-08-06T02:36:34;97355.78;;;22.95;nan
12146;BME280;6136;47.032;15.398;2022-08-06T02:39:19;97353.22;;;23.24;nan
12146;BME280;6136;47.032;15.398;2022-08-06T02:42:02;97368.50;;;23.40;nan
12146;BME280;6136;47.032;15.398;2022-08-06T02:44:38;97371.28;;;23.54;nan
12146;BME280;6136;47.032;15.398;2022-08-06T02:47:17;97377.59;;;23.70;nan
12146;BME280;6136;47.032;15.398;2022-08-06T02:49:50;97386.59;;;23.85;nan
12146;BME280;6136;47.032;15.398;2022-08-06T02:52:28;97384.66;;;23.93;nan
12146;BME280;6136;47.032;15.398;2022-08-06T02:55:03;97388.78;;;24.04;nan
12146;BME280;6136;47.032;15.398;2022-08-06T02:57:37;97387.28;;;24.16;nan
12146;BME280;6136;47.032;15.398;2022-08-06T03:00:17;97395.06;;;24.19;nan
12146;BME280;6136;47.032;15.398;2022-08-06T03:02:59;97391.84;;;24.16;nan
12146;BME280;6136;47.032;15.398;2022-08-06T03:05:29;97388.97;;;24.17;nan
12146;BME280;6136;47.032;15.398;2022-08-06T03:08:19;97396.47;;;24.15;nan
12146;BME280;6136;47.032;15.398;2022-08-06T03:10:53;97385.25;;;24.18;nan
12146;BME280;6136;47.032;15.398;2022-08-06T03:13:22;97385.69;;;24.30;nan
12146;BME280;6136;47.032;15.398;2022-08-06T03:15:58;97390.88;;;24.46;nan
12146;BME280;6136;47.032;15.398;2022-08-06T03:18:29;97390.44;;;24.57;nan
12146;BME280;6136;47.032;15.398;2022-08-06T03:20:59;97379.50;;;24.65;nan
12146;BME280;6136;47.032;15.398;2022-08-06T03:23:29;97388.75;;;24.71;nan
12146;BME280;6136;47.032;15.398;2022-08-06T03:25:59;97393.69;;;24.82;nan
12146;BME280;6136;47.032;15.398;2022-08-06T03:28:32;97392.88;;;24.96;nan
12146;BME280;6136;47.032;15.398;2022-08-06T03:31:01;97388.81;;;25.07;nan
12146;BME280;6136;47.032;15.398;2022-08-06T03:33:32;97384.22;;;25.07;nan
12146;BME280;6136;47.032;15.398;2022-08-06T03:36:20;97392.19;;;25.09;nan
12146;BME280;6136;47.032;15.398;2022-08-06T03:38:54;97386.47;;;25.19;nan
12146;BME280;6136;47.032;15.398;2022-08-06T03:41:23;97387.66;;;25.16;nan
12146;BME280;6136;47.032;15.398;2022-08-06T03:43:55;97396.00;;;25.14;nan
12146;BME280;6136;47.032;15.398;2022-08-06T03:46:34;97400.03;;;25.19;nan
12146;BME280;6136;47.032;15.398;2022-08-06T03:49:05;97398.53;;;25.16;nan
12146;BME280;6136;47.032;15.398;2022-08-06T03:51:37;97398.97;;;25.20;nan
12146;BME280;6136;47.032;15.398;2022-08-06T03:54:29;97395.69;;;25.24;nan
12146;BME280;6136;47.032;15.398;2022-08-06T03:57:10;97404.00;;;25.23;nan
12146;BME280;6136;47.032;15.398;2022-08-06T03:59:42;97409.91;;;25.26;nan
12146;BME280;6136;47.032;15.398;2022-08-06T04:02:27;97411.97;;;25.24;nan
12146;BME280;6136;47.032;15.398;2022-08-06T04:05:06;97409.31;;;25.31;nan
12146;BME280;6136;47.032;15.398;2022-08-06T04:07:35;97424.69;;;25.24;nan
12146;BME280;6136;47.032;15.398;2022-08-06T04:10:23;97413.59;;;25.19;nan
12146;BME280;6136;47.032;15.398;2022-08-06T04:13:02;97430.47;;;25.21;nan
12146;BME280;6136;47.032;15.398;2022-08-06T04:15:35;97430.47;;;25.21;nan
12146;BME280;6136;47.032;15.398;2022-08-06T04:18:04;97439.94;;;25.25;nan
12146;BME280;6136;47.032;15.398;2022-08-06T04:20:40;97436.28;;;25.32;nan
12146;BME280;6136;47.032;15.398;2022-08-06T04:23:10;97437.03;;;25.26;nan
12146;BME280;6136;47.032;15.398;2022-08-06T04:25:40;97440.66;;;25.33;nan
12146;BME280;6136;47.032;15.398;2022-08-06T04:28:10;97449.66;;;25.34;nan
12146;BME280;6136;47.032;15.398;2022-08-06T04:30:40;97444.22;;;25.34;nan
12146;BME280;6136;47.032;15.398;2022-08-06T04:33:15;97446.28;;;25.32;nan
12146;BME280;6136;47.032;15.398;2022-08-06T04:35:47;97456.72;;;25.35;nan
12146;BME280;6136;47.032;15.398;2022-08-06T04:38:29;97463.53;;;25.45;nan
12146;BME280;6136;47.032;15.398;2022-08-06T04:40:58;97468.78;;;25.47;nan
12146;BME280;6136;47.032;15.398;2022-08-06T04:43:29;97469.50;;;25.56;nan
12146;BME280;6136;47.032;15.398;2022-08-06T04:46:04;97457.16;;;25.53;nan
12146;BME280;6136;47.032;15.398;2022-08-06T04:48:44;97469.44;;;25.49;nan
12146;BME280;6136;47.032;15.398;2022-08-06T04:51:15;97467.81;;;25.55;nan
12146;BME280;6136;47.032;15.398;2022-08-06T04:54:04;97456.25;;;25.46;nan
12146;BME280;6136;47.032;15.398;2022-08-06T04:56:38;97478.22;;;25.51;nan
12146;BME280;6136;47.032;15.398;2022-08-06T04:59:14;97480.09;;;25.50;nan
12146;BME280;6136;47.032;15.398;2022-08-06T05:01:42;97478.88;;;25.53;nan
12146;BME280;6136;47.032;15.398;2022-08-06T05:04:22;97481.38;;;25.69;nan
12146;BME280;6136;47.032;15.398;2022-08-06T05:06:57;97490.81;;;25.73;nan
12146;BME280;6136;47.032;15.398;2022-08-06T05:09:28;97489.97;;;25.73;nan
12146;BME280;6136;47.032;15.398;2022-08-06T05:12:13;97490.19;;;25.71;nan
12146;BME280;6136;47.032;15.398;2022-08-06T05:14:46;97485.13;;;25.68;nan
12146;BME280;6136;47.032;15.398;2022-08-06T05:17:20;97489.78;;;25.74;nan
12146;BME280;6136;47.032;15.398;2022-08-06T05:19:55;97481.44;;;25.76;nan
12146;BME280;6136;47.032;15.398;2022-08-06T05:22:27;97479.03;;;25.66;nan
12146;BME280;6136;47.032;15.398;2022-08-06T05:25:16;97484.47;;;25.87;nan
12146;BME280;6136;47.032;15.398;2022-08-06T05:27:48;97486.56;;;25.85;nan
12146;BME280;6136;47.032;15.398;2022-08-06T05:30:29;97487.91;;;25.96;nan
12146;BME280;6136;47.032;15.398;2022-08-06T05:32:58;97485.06;;;26.04;nan
12146;BME280;6136;47.032;15.398;2022-08-06T05:35:27;97496.78;;;26.26;nan
12146;BME280;6136;47.032;15.398;2022-08-06T05:38:07;97482.53;;;26.24;nan
12146;BME280;6136;47.032;15.398;2022-08-06T05:40:38;97483.66;;;26.30;nan
12146;BME280;6136;47.032;15.398;2022-08-06T05:43:19;97493.94;;;26.34;nan
12146;BME280;6136;47.032;15.398;2022-08-06T05:45:51;97501.75;;;26.44;nan
12146;BME280;6136;47.032;15.398;2022-08-06T05:48:21;97480.22;;;26.42;nan
12146;BME280;6136;47.032;15.398;2022-08-06T05:50:58;97483.22;;;26.54;nan
12146;BME280;6136;47.032;15.398;2022-08-06T05:53:32;97491.81;;;26.57;nan
12146;BME280;6136;47.032;15.398;2022-08-06T05:56:25;97491.63;;;26.59;nan
12146;BME280;6136;47.032;15.398;2022-08-06T05:59:06;97498.00;;;26.73;nan
12146;BME280;6136;47.032;15.398;2022-08-06T06:01:42;97507.66;;;27.03;nan
12146;BME280;6136;47.032;15.398;2022-08-06T06:04:12;97498.19;;;27.33;nan
12146;BME280;6136;47.032;15.398;2022-08-06T06:06:41;97510.22;;;27.59;nan
12146;BME280;6136;47.032;15.398;2022-08-06T06:09:12;97508.03;;;27.95;nan
12146;BME280;6136;47.032;15.398;2022-08-06T06:11:42;97506.88;;;28.31;nan
12146;BME280;6136;47.032;15.398;2022-08-06T06:14:29;97509.81;;;28.75;nan
12146;BME280;6136;47.032;15.398;2022-08-06T06:17:11;97525.97;;;28.83;nan
12146;BME280;6136;47.032;15.398;2022-08-06T06:19:48;97529.94;;;28.74;nan
12146;BME280;6136;47.032;15.398;2022-08-06T06:22:21;97522.19;;;28.71;nan
12146;BME280;6136;47.032;15.398;2022-08-06T06:24:59;97533.75;;;28.86;nan
12146;BME280;6136;47.032;15.398;2022-08-06T06:27:34;97534.59;;;28.80;nan
12146;BME280;6136;47.032;15.398;2022-08-06T06:30:16;97545.88;;;28.44;nan
12146;BME280;6136;47.032;15.398;2022-08-06T06:33:13;97546.09;;;28.56;nan
12146;BME280;6136;47.032;15.398;2022-08-06T06:35:50;97550.50;;;28.70;nan
12146;BME280;6136;47.032;15.398;2022-08-06T06:38:31;97550.44;;;28.17;nan
12146;BME280;6136;47.032;15.398;2022-08-06T06:41:08;97544.59;;;28.34;nan
12146;BME280;6136;47.032;15.398;2022-08-06T06:43:51;97544.63;;;28.67;nan
12146;BME280;6136;47.032;15.398;2022-08-06T06:46:23;97554.50;;;28.74;nan
12146;BME280;6136;47.032;15.398;2022-08-06T06:49:09;97557.84;;;29.03;nan
12146;BME280;6136;47.032;15.398;2022-08-06T06:52:03;97560.56;;;29.16;nan
12146;BME280;6136;47.032;15.398;2022-08-06T06:54:38;97559.69;;;29.22;nan
12146;BME280;6136;47.032;15.398;2022-08-06T06:57:11;97560.97;;;29.39;nan
12146;BME280;6136;47.032;15.398;2022-08-06T06:59:43;97567.88;;;29.35;nan
12146;BME280;6136;47.032;15.398;2022-08-06T07:02:32;97568.69;;;29.42;nan
12146;BME280;6136;47.032;15.398;2022-08-06T07:05:03;97575.13;;;29.74;nan
12146;BME280;6136;47.032;15.398;2022-08-06T07:07:34;97563.19;;;30.13;nan
12146;BME280;6136;47.032;15.398;2022-08-06T07:10:07;97576.06;;;30.06;nan
12146;BME280;6136;47.032;15.398;2022-08-06T07:12:40;97582.75;;;30.10;nan
12146;BME280;6136;47.032;15.398;2022-08-06T07:15:11;97571.34;;;30.20;nan
12146;BME280;6136;47.032;15.398;2022-08-06T07:17:44;97572.81;;;30.22;nan
12146;BME280;6136;47.032;15.398;2022-08-06T07:20:18;97584.34;;;29.93;nan
12146;BME280;6136;47.032;15.398;2022-08-06T07:22:53;97573.53;;;30.42;nan
12146;BME280;6136;47.032;15.398;2022-08-06T07:25:44;97572.44;;;30.12;nan
12146;BME280;6136;47.032;15.398;2022-08-06T07:28:22;97581.19;;;30.27;nan
12146;BME280;6136;47.032;15.398;2022-08-06T07:30:55;97583.03;;;30.71;nan
12146;BME280;6136;47.032;15.398;2022-08-06T07:33:31;97576.50;;;30.97;nan
12146;BME280;6136;47.032;15.398;2022-08-06T07:36:21;97587.19;;;31.48;nan
12146;BME280;6136;47.032;15.398;2022-08-06T07:38:56;97581.50;;;31.86;nan
12146;BME280;6136;47.032;15.398;2022-08-06T07:41:27;97581.81;;;32.26;nan
12146;BME280;6136;47.032;15.398;2022-08-06T07:44:01;97592.22;;;32.66;nan
12146;BME280;6136;47.032;15.398;2022-08-06T07:46:34;97594.88;;;32.84;nan
12146;BME280;6136;47.032;15.398;2022-08-06T07:49:06;97599.31;;;32.44;nan
12146;BME280;6136;47.032;15.398;2022-08-06T07:51:38;97604.41;;;31.74;nan
12146;BME280;6136;47.032;15.398;2022-08-06T07:54:10;97615.75;;;31.77;nan
12146;BME280;6136;47.032;15.398;2022-08-06T07:56:42;97613.06;;;31.89;nan
12146;BME280;6136;47.032;15.398;2022-08-06T07:59:28;97610.72;;;31.74;nan
12146;BME280;6136;47.032;15.398;2022-08-06T08:01:57;97613.47;;;31.74;nan
12146;BME280;6136;47.032;15.398;2022-08-06T08:04:27;97621.25;;;31.52;nan
12146;BME280;6136;47.032;15.398;2022-08-06T08:07:19;97623.88;;;31.22;nan
12146;BME280;6136;47.032;15.398;2022-08-06T08:10:04;97629.41;;;31.16;nan
12146;BME280;6136;47.032;15.398;2022-08-06T08:12:33;97627.41;;;30.98;nan
12146;BME280;6136;47.032;15.398;2022-08-06T08:15:06;97622.78;;;30.99;nan
12146;BME280;6136;47.032;15.398;2022-08-06T08:17:44;97633.97;;;30.97;nan
12146;BME280;6136;47.032;15.398;2022-08-06T08:20:24;97644.63;;;31.05;nan
12146;BME280;6136;47.032;15.398;2022-08-06T08:23:01;97638.22;;;31.43;nan
12146;BME280;6136;47.032;15.398;2022-08-06T08:25:30;97651.00;;;32.28;nan
12146;BME280;6136;47.032;15.398;2022-08-06T08:28:10;97655.09;;;32.97;nan
12146;BME280;6136;47.032;15.398;2022-08-06T08:30:45;97662.19;;;32.27;nan
12146;BME280;6136;47.032;15.398;2022-08-06T08:33:16;97662.28;;;31.59;nan
12146;BME280;6136;47.032;15.398;2022-08-06T08:35:45;97674.50;;;31.13;nan
12146;BME280;6136;47.032;15.398;2022-08-06T08:38:16;97675.66;;;30.68;nan
12146;BME280;6136;47.032;15.398;2022-08-06T08:40:44;97675.75;;;30.41;nan
12146;BME280;6136;47.032;15.398;2022-08-06T08:43:19;97679.28;;;30.04;nan
12146;BME280;6136;47.032;15.398;2022-08-06T08:45:51;97678.50;;;29.77;nan
12146;BME280;6136;47.032;15.398;2022-08-06T08:48:23;97683.19;;;29.63;nan
12146;BME280;6136;47.032;15.398;2022-08-06T08:50:56;97688.22;;;29.53;nan
12146;BME280;6136;47.032;15.398;2022-08-06T08:53:29;97690.72;;;29.68;nan
12146;BME280;6136;47.032;15.398;2022-08-06T08:56:12;97699.09;;;29.80;nan
12146;BME280;6136;47.032;15.398;2022-08-06T08:59:01;97696.78;;;29.77;nan
12146;BME280;6136;47.032;15.398;2022-08-06T09:01:51;97699.97;;;29.54;nan
12146;BME280;6136;47.032;15.398;2022-08-06T09:04:22;97708.41;;;29.39;nan
12146;BME280;6136;47.032;15.398;2022-08-06T09:06:53;97719.69;;;28.90;nan
12146;BME280;6136;47.032;15.398;2022-08-06T09:09:23;97726.59;;;28.92;nan
12146;BME280;6136;47.032;15.398;2022-08-06T09:11:56;97727.25;;;28.94;nan
12146;BME280;6136;47.032;15.398;2022-08-06T09:14:32;97732.38;;;28.63;nan
12146;BME280;6136;47.032;15.398;2022-08-06T09:17:02;97738.19;;;28.47;nan
12146;BME280;6136;47.032;15.398;2022-08-06T09:19:32;97734.66;;;28.53;nan
12146;BME280;6136;47.032;15.398;2022-08-06T09:22:04;97747.47;;;28.52;nan
12146;BME280;6136;47.032;15.398;2022-08-06T09:24:32;97740.78;;;28.68;nan
12146;BME280;6136;47.032;15.398;2022-08-06T09:27:02;97737.50;;;28.92;nan
12146;BME280;6136;47.032;15.398;2022-08-06T09:29:53;97739.72;;;28.69;nan
12146;BME280;6136;47.032;15.398;2022-08-06T09:32:39;97754.91;;;28.78;nan
12146;BME280;6136;47.032;15.398;2022-08-06T09:35:24;97756.09;;;28.63;nan
12146;BME280;6136;47.032;15.398;2022-08-06T09:38:11;97752.69;;;28.54;nan
12146;BME280;6136;47.032;15.398;2022-08-06T09:41:07;97746.56;;;28.04;nan
12146;BME280;6136;47.032;15.398;2022-08-06T09:43:40;97753.44;;;27.66;nan
12146;BME280;6136;47.032;15.398;2022-08-06T09:46:37;97761.28;;;27.26;nan
12146;BME280;6136;47.032;15.398;2022-08-06T09:49:08;97760.28;;;27.13;nan
12146;BME280;6136;47.032;15.398;2022-08-06T09:52:11;97782.78;;;27.00;nan
12146;BME280;6136;47.032;15.398;2022-08-06T09:54:40;97786.47;;;26.78;nan
12146;BME280;6136;47.032;15.398;2022-08-06T09:57:08;97800.59;;;26.66;nan
12146;BME280;6136;47.032;15.398;2022-08-06T09:59:44;97807.63;;;26.46;nan
12146;BME280;6136;47.032;15.398;2022-08-06T10:02:17;97806.06;;;26.37;nan
12146;BME280;6136;47.032;15.398;2022-08-06T10:04:51;97808.97;;;26.36;nan
12146;BME280;6136;47.032;15.398;2022-08-06T10:07:28;97811.09;;;26.11;nan
12146;BME280;6136;47.032;15.398;2022-08-06T10:10:06;97806.06;;;26.37;nan
12146;BME280;6136;47.032;15.398;2022-08-06T10:12:35;97821.50;;;26.51;nan
12146;BME280;6136;47.032;15.398;2022-08-06T10:15:04;97818.22;;;26.56;nan
12146;BME280;6136;47.032;15.398;2022-08-06T10:17:34;97816.91;;;26.08;nan
12146;BME280;6136;47.032;15.398;2022-08-06T10:20:19;97825.47;;;25.67;nan
12146;BME280;6136;47.032;15.398;2022-08-06T10:22:52;97818.97;;;26.06;nan
12146;BME280;6136;47.032;15.398;2022-08-06T10:25:24;97829.59;;;26.30;nan
12146;BME280;6136;47.032;15.398;2022-08-06T10:27:56;97830.69;;;26.50;nan
12146;BME280;6136;47.032;15.398;2022-08-06T10:30:26;97830.25;;;26.83;nan
12146;BME280;6136;47.032;15.398;2022-08-06T10:33:05;97830.97;;;27.06;nan
12146;BME280;6136;47.032;15.398;2022-08-06T10:35:45;97829.50;;;27.46;nan
12146;BME280;6136;47.032;15.398;2022-08-06T10:38:17;97828.41;;;27.62;nan
12146;BME280;6136;47.032;15.398;2022-08-06T10:40:48;97833.72;;;27.49;nan
12146;BME280;6136;47.032;15.398;2022-08-06T10:43:24;97825.75;;;27.68;nan
12146;BME280;6136;47.032;15.398;2022-08-06T10:45:52;97831.59;;;27.93;nan
12146;BME280;6136;47.032;15.398;2022-08-06T10:48:21;97832.88;;;27.97;nan
12146;BME280;6136;47.032;15.398;2022-08-06T10:51:13;97842.78;;;28.05;nan
12146;BME280;6136;47.032;15.398;2022-08-06T10:53:43;97843.91;;;28.45;nan
12146;BME280;6136;47.032;15.398;2022-08-06T10:56:28;97849.84;;;28.96;nan
12146;BME280;6136;47.032;15.398;2022-08-06T10:59:05;97844.63;;;29.21;nan
12146;BME280;6136;47.032;15.398;2022-08-06T11:01:36;97843.69;;;29.55;nan
12146;BME280;6136;47.032;15.398;2022-08-06T11:04:19;97845.38;;;29.62;nan
12146;BME280;6136;47.032;15.398;2022-08-06T11:07:00;97832.97;;;29.80;nan
12146;BME280;6136;47.032;15.398;2022-08-06T11:09:46;97838.94;;;29.09;nan
12146;BME280;6136;47.032;15.398;2022-08-06T11:12:39;97829.13;;;28.67;nan
12146;BME280;6136;47.032;15.398;2022-08-06T11:15:13;97829.84;;;28.13;nan
12146;BME280;6136;47.032;15.398;2022-08-06T11:17:43;97821.75;;;27.50;nan
12146;BME280;6136;47.032;15.398;2022-08-06T11:20:34;97816.72;;;27.47;nan
12146;BME280;6136;47.032;15.398;2022-08-06T11:23:20;97821.47;;;27.38;nan
12146;BME280;6136;47.032;15.398;2022-08-06T11:26:09;97828.50;;;26.90;nan
12146;BME280;6136;47.032;15.398;2022-08-06T11:28:59;97831.34;;;26.67;nan
12146;BME280;6136;47.032;15.398;2022-08-06T11:31:46;97827.44;;;26.76;nan
12146;BME280;6136;47.032;15.398;2022-08-06T11:34:20;97833.06;;;26.89;nan
12146;BME280;6136;47.032;15.398;2022-08-06T11:37:00;97844.59;;;26.91;nan
12146;BME280;6136;47.032;15.398;2022-08-06T11:40:06;97846.66;;;27.04;nan
12146;BME280;6136;47.032;15.398;2022-08-06T11:42:41;97838.38;;;27.12;nan
12146;BME280;6136;47.032;15.398;2022-08-06T11:45:16;97843.47;;;27.22;nan
12146;BME280;6136;47.032;15.398;2022-08-06T11:48:05;97835.50;;;27.56;nan
12146;BME280;6136;47.032;15.398;2022-08-06T11:50:52;97835.78;;;27.47;nan
12146;BME280;6136;47.032;15.398;2022-08-06T11:53:38;97831.25;;;27.32;nan
12146;BME280;6136;47.032;15.398;2022-08-06T11:56:13;97845.03;;;27.10;nan
12146;BME280;6136;47.032;15.398;2022-08-06T11:58:42;97842.63;;;26.85;nan
12146;BME280;6136;47.032;15.398;2022-08-06T12:01:10;97840.50;;;26.81;nan
12146;BME280;6136;47.032;15.398;2022-08-06T12:03:58;97836.97;;;26.65;nan
12146;BME280;6136;47.032;15.398;2022-08-06T12:06:27;97842.66;;;26.71;nan
12146;BME280;6136;47.032;15.398;2022-08-06T12:09:08;97849.53;;;26.52;nan
12146;BME280;6136;47.032;15.398;2022-08-06T12:11:44;97843.34;;;26.43;nan
12146;BME280;6136;47.032;15.398;2022-08-06T12:14:38;97836.41;;;26.26;nan
12146;BME280;6136;47.032;15.398;2022-08-06T12:17:15;97835.81;;;26.16;nan
12146;BME280;6136;47.032;15.398;2022-08-06T12:19:44;97838.84;;;26.21;nan
12146;BME280;6136;47.032;15.398;2022-08-06T12:22:27;97842.25;;;26.38;nan
12146;BME280;6136;47.032;15.398;2022-08-06T12:24:57;97832.75;;;26.48;nan
12146;BME280;6136;47.032;15.398;2022-08-06T12:27:39;97828.97;;;26.64;nan
12146;BME280;6136;47.032;15.398;2022-08-06T12:30:17;97837.63;;;26.67;nan
12146;BME280;6136;47.032;15.398;2022-08-06T12:33:04;97838.94;;;26.42;nan
12146;BME280;6136;47.032;15.398;2022-08-06T12:35:47;97836.22;;;26.42;nan
12146;BME280;6136;47.032;15.398;2022-08-06T12:38:16;97845.88;;;26.45;nan
12146;BME280;6136;47.032;15.398;2022-08-06T12:40:55;97834.44;;;26.49;nan
12146;BME280;6136;47.032;15.398;2022-08-06T12:43:26;97833.56;;;26.63;nan
12146;BME280;6136;47.032;15.398;2022-08-06T12:46:11;97836.78;;;26.52;nan
12146;BME280;6136;47.032;15.398;2022-08-06T12:48:48;97836.78;;;26.52;nan
12146;BME280;6136;47.032;15.398;2022-08-06T12:51:17;97828.50;;;26.60;nan
12146;BME280;6136;47.032;15.398;2022-08-06T12:53:54;97827.84;;;26.73;nan
12146;BME280;6136;47.032;15.398;2022-08-06T12:56:23;97828.03;;;26.72;nan
12146;BME280;6136;47.032;15.398;2022-08-06T12:59:00;97831.44;;;26.59;nan
12146;BME280;6136;47.032;15.398;2022-08-06T13:01:33;97833.28;;;26.73;nan
12146;BME280;6136;47.032;15.398;2022-08-06T13:04:23;97836.56;;;26.68;nan
12146;BME280;6136;47.032;15.398;2022-08-06T13:06:55;97828.84;;;26.87;nan
12146;BME280;6136;47.032;15.398;2022-08-06T13:09:30;97842.19;;;26.82;nan
12146;BME280;6136;47.032;15.398;2022-08-06T13:12:12;97828.28;;;26.77;nan
12146;BME280;6136;47.032;15.398;2022-08-06T13:14:50;97837.16;;;26.35;nan
12146;BME280;6136;47.032;15.398;2022-08-06T13:17:23;97839.00;;;26.19;nan
12146;BME280;6136;47.032;15.398;2022-08-06T13:20:08;97843.41;;;26.06;nan
12146;BME280;6136;47.032;15.398;2022-08-06T13:22:49;97832.97;;;25.95;nan
12146;BME280;6136;47.032;15.398;2022-08-06T13:25:17;97831.41;;;25.85;nan
12146;BME280;6136;47.032;15.398;2022-08-06T13:28:09;97839.31;;;25.72;nan
12146;BME280;6136;47.032;15.398;2022-08-06T13:30:41;97838.59;;;25.78;nan
12146;BME280;6136;47.032;15.398;2022-08-06T13:33:14;97835.50;;;25.81;nan
12146;BME280;6136;47.032;15.398;2022-08-06T13:35:44;97821.38;;;25.71;nan
12146;BME280;6136;47.032;15.398;2022-08-06T13:38:25;97829.13;;;25.74;nan
12146;BME280;6136;47.032;15.398;2022-08-06T13:40:54;97824.50;;;25.60;nan
12146;BME280;6136;47.032;15.398;2022-08-06T13:43:35;97825.09;;;25.70;nan
12146;BME280;6136;47.032;15.398;2022-08-06T13:46:12;97828.94;;;25.53;nan
12146;BME280;6136;47.032;15.398;2022-08-06T13:48:46;97824.16;;;25.40;nan
12146;BME280;6136;47.032;15.398;2022-08-06T13:51:17;97828.84;;;25.46;nan
12146;BME280;6136;47.032;15.398;2022-08-06T13:53:53;97832.41;;;25.47;nan
12146;BME280;6136;47.032;15.398;2022-08-06T13:56:22;97824.53;;;25.52;nan
12146;BME280;6136;47.032;15.398;2022-08-06T13:58:55;97820.13;;;25.51;nan
12146;BME280;6136;47.032;15.398;2022-08-06T14:01:27;97831.38;;;25.48;nan
12146;BME280;6136;47.032;15.398;2022-08-06T14:04:12;97828.66;;;25.48;nan
12146;BME280;6136;47.032;15.398;2022-08-06T14:06:46;97825.00;;;25.41;nan
12146;BME280;6136;47.032;15.398;2022-08-06T14:09:20;97819.56;;;25.41;nan
12146;BME280;6136;47.032;15.398;2022-08-06T14:11:51;97822.63;;;25.38;nan
12146;BME280;6136;47.032;15.398;2022-08-06T14:14:21;97834.06;;;25.33;nan